sensor_id;sensor_type;location;lat;lon;timestamp;noise_LAeq;noise_LA_min;noise_LA_max;noise_LA01;noise_LA95
72805;Laerm;60920;48.748;19.142;2024-02-16T00:02:11;29.02;27.82;30.17;;
72805;Laerm;60920;48.748;19.142;2024-02-16T00:04:36;29.02;27.71;30.34;;
72805;Laerm;60920;48.748;19.142;2024-02-16T00:07:01;29.05;27.71;30.51;;
72805;Laerm;60920;48.748;19.142;2024-02-16T00:09:27;29.05;27.86;30.47;;
72805;Laerm;60920;48.748;19.142;2024-02-16T00:11:52;29.07;27.59;30.24;;
72805;Laerm;60920;48.748;19.142;2024-02-16T00:14:18;29.06;27.75;30.26;;
72805;Laerm;60920;48.748;19.142;2024-02-16T00:16:43;29.06;27.84;30.30;;
72805;Laerm;60920;48.748;19.142;2024-02-16T00:19:09;29.03;27.71;30.21;;
72805;Laerm;60920;48.748;19.142;2024-02-16T00:21:34;29.06;27.63;30.38;;
72805;Laerm;60920;48.748;19.142;2024-02-16T00:23:59;29.04;27.73;30.29;;
72805;Laerm;60920;48.748;19.142;2024-02-16T00:26:27;29.05;27.73;30.18;;
72805;Laerm;60920;48.748;19.142;2024-02-16T00:28:53;29.06;27.51;30.28;;
72805;Laerm;60920;48.748;19.142;2024-02-16T00:31:18;29.06;27.86;30.36;;
72805;Laerm;60920;48.748;19.142;2024-02-16T00:33:44;29.03;27.82;30.15;;
72805;Laerm;60920;48.748;19.142;2024-02-16T00:36:09;29.01;27.82;30.30;;
72805;Laerm;60920;48.748;19.142;2024-02-16T00:38:35;29.01;27.63;30.24;;
72805;Laerm;60920;48.748;19.142;2024-02-16T00:41:01;29.02;27.68;30.23;;
72805;Laerm;60920;48.748;19.142;2024-02-16T00:43:26;29.00;27.75;30.41;;
72805;Laerm;60920;48.748;19.142;2024-02-16T00:45:52;28.99;27.74;30.25;;
72805;Laerm;60920;48.748;19.142;2024-02-16T00:48:17;29.03;27.60;30.32;;
72805;Laerm;60920;48.748;19.142;2024-02-16T00:50:43;29.05;27.53;30.22;;
72805;Laerm;60920;48.748;19.142;2024-02-16T00:53:08;29.02;27.85;30.18;;
72805;Laerm;60920;48.748;19.142;2024-02-16T00:55:33;29.02;27.85;30.35;;
72805;Laerm;60920;48.748;19.142;2024-02-16T00:57:59;29.02;27.65;30.14;;
72805;Laerm;60920;48.748;19.142;2024-02-16T01:00:24;29.03;27.69;30.22;;
72805;Laerm;60920;48.748;19.142;2024-02-16T01:02:50;29.02;27.64;30.34;;
72805;Laerm;60920;48.748;19.142;2024-02-16T01:05:16;29.02;27.83;30.53;;
72805;Laerm;60920;48.748;19.142;2024-02-16T01:07:43;29.00;27.52;30.09;;
72805;Laerm;60920;48.748;19.142;2024-02-16T01:10:08;29.01;27.47;30.36;;
72805;Laerm;60920;48.748;19.142;2024-02-16T01:12:33;29.01;27.63;30.33;;
72805;Laerm;60920;48.748;19.142;2024-02-16T01:14:59;28.98;27.65;30.27;;
72805;Laerm;60920;48.748;19.142;2024-02-16T01:17:25;28.98;27.64;30.20;;
72805;Laerm;60920;48.748;19.142;2024-02-16T01:19:50;29.01;27.72;30.24;;
72805;Laerm;60920;48.748;19.142;2024-02-16T01:22:15;29.03;27.80;30.18;;
72805;Laerm;60920;48.748;19.142;2024-02-16T01:24:41;29.04;27.78;30.29;;
72805;Laerm;60920;48.748;19.142;2024-02-16T01:27:06;29.01;27.76;30.17;;
72805;Laerm;60920;48.748;19.142;2024-02-16T01:29:31;28.98;27.62;30.44;;
72805;Laerm;60920;48.748;19.142;2024-02-16T01:31:58;28.98;27.65;30.30;;
72805;Laerm;60920;48.748;19.142;2024-02-16T01:34:23;29.01;27.64;30.21;;
72805;Laerm;60920;48.748;19.142;2024-02-16T01:36:48;29.04;27.75;30.34;;
72805;Laerm;60920;48.748;19.142;2024-02-16T01:39:14;29.07;27.92;30.33;;
72805;Laerm;60920;48.748;19.142;2024-02-16T01:41:39;29.08;27.69;30.18;;
72805;Laerm;60920;48.748;19.142;2024-02-16T01:44:05;29.07;27.76;30.42;;
72805;Laerm;60920;48.748;19.142;2024-02-16T01:46:30;29.07;27.81;30.28;;
72805;Laerm;60920;48.748;19.142;2024-02-16T01:48:57;29.07;27.49;30.55;;
72805;Laerm;60920;48.748;19.142;2024-02-16T01:51:23;29.05;27.71;30.39;;
72805;Laerm;60920;48.748;19.142;2024-02-16T01:53:49;29.07;27.71;30.20;;
72805;Laerm;60920;48.748;19.142;2024-02-16T01:56:15;29.08;27.64;30.37;;
72805;Laerm;60920;48.748;19.142;2024-02-16T01:58:40;29.07;27.74;30.41;;
72805;Laerm;60920;48.748;19.142;2024-02-16T02:01:06;29.06;27.69;30.15;;
72805;Laerm;60920;48.748;19.142;2024-02-16T02:03:32;29.07;27.63;30.33;;
72805;Laerm;60920;48.748;19.142;2024-02-16T02:05:58;29.07;27.91;30.30;;
72805;Laerm;60920;48.748;19.142;2024-02-16T02:08:24;29.07;27.61;30.27;;
72805;Laerm;60920;48.748;19.142;2024-02-16T02:10:51;29.05;27.70;30.39;;
72805;Laerm;60920;48.748;19.142;2024-02-16T02:13:16;29.05;27.94;30.26;;
72805;Laerm;60920;48.748;19.142;2024-02-16T02:15:42;29.04;27.74;30.17;;
72805;Laerm;60920;48.748;19.142;2024-02-16T02:18:07;29.08;27.85;30.19;;
72805;Laerm;60920;48.748;19.142;2024-02-16T02:20:33;29.08;27.82;30.18;;
72805;Laerm;60920;48.748;19.142;2024-02-16T02:22:59;29.11;27.85;30.39;;
72805;Laerm;60920;48.748;19.142;2024-02-16T02:25:24;29.12;27.92;30.34;;
72805;Laerm;60920;48.748;19.142;2024-02-16T02:27:52;29.14;27.80;30.24;;
72805;Laerm;60920;48.748;19.142;2024-02-16T02:30:17;29.16;27.89;30.48;;
72805;Laerm;60920;48.748;19.142;2024-02-16T02:32:42;29.14;27.84;30.26;;
72805;Laerm;60920;48.748;19.142;2024-02-16T02:35:08;29.15;27.84;30.56;;
72805;Laerm;60920;48.748;19.142;2024-02-16T02:37:33;29.13;27.82;30.50;;
72805;Laerm;60920;48.748;19.142;2024-02-16T02:39:59;29.13;27.76;30.35;;
72805;Laerm;60920;48.748;19.142;2024-02-16T02:42:24;29.15;27.93;30.75;;
72805;Laerm;60920;48.748;19.142;2024-02-16T02:44:49;29.14;27.67;30.37;;
72805;Laerm;60920;48.748;19.142;2024-02-16T02:47:16;29.12;27.92;30.45;;
72805;Laerm;60920;48.748;19.142;2024-02-16T02:49:42;29.12;27.92;30.48;;
72805;Laerm;60920;48.748;19.142;2024-02-16T02:52:07;29.10;27.86;30.19;;
72805;Laerm;60920;48.748;19.142;2024-02-16T02:54:33;29.11;27.66;30.45;;
72805;Laerm;60920;48.748;19.142;2024-02-16T02:56:58;29.05;27.84;30.33;;
72805;Laerm;60920;48.748;19.142;2024-02-16T02:59:24;29.04;27.53;30.33;;
72805;Laerm;60920;48.748;19.142;2024-02-16T03:01:49;29.05;27.81;30.18;;
72805;Laerm;60920;48.748;19.142;2024-02-16T03:04:15;29.06;27.79;30.23;;
72805;Laerm;60920;48.748;19.142;2024-02-16T03:06:40;29.09;27.75;30.54;;
72805;Laerm;60920;48.748;19.142;2024-02-16T03:09:06;29.15;27.92;30.56;;
72805;Laerm;60920;48.748;19.142;2024-02-16T03:11:32;29.12;27.83;30.29;;
72805;Laerm;60920;48.748;19.142;2024-02-16T03:13:58;29.09;27.79;30.23;;
72805;Laerm;60920;48.748;19.142;2024-02-16T03:16:23;29.09;27.86;30.31;;
72805;Laerm;60920;48.748;19.142;2024-02-16T03:18:48;29.07;27.77;30.44;;
72805;Laerm;60920;48.748;19.142;2024-02-16T03:21:14;29.05;27.84;30.18;;
72805;Laerm;60920;48.748;19.142;2024-02-16T03:23:43;29.07;27.84;30.37;;
72805;Laerm;60920;48.748;19.142;2024-02-16T03:26:18;29.07;27.78;30.32;;
72805;Laerm;60920;48.748;19.142;2024-02-16T03:28:47;29.03;27.71;30.99;;
72805;Laerm;60920;48.748;19.142;2024-02-16T03:33:42;29.03;27.80;30.25;;
72805;Laerm;60920;48.748;19.142;2024-02-16T03:36:08;29.00;27.55;30.14;;
72805;Laerm;60920;48.748;19.142;2024-02-16T03:38:34;29.01;27.83;30.12;;
72805;Laerm;60920;48.748;19.142;2024-02-16T03:41:05;29.01;27.68;30.39;;
72805;Laerm;60920;48.748;19.142;2024-02-16T03:43:31;29.03;27.78;31.26;;
72805;Laerm;60920;48.748;19.142;2024-02-16T03:45:56;29.00;27.87;30.34;;
72805;Laerm;60920;48.748;19.142;2024-02-16T03:48:22;28.96;27.61;30.08;;
72805;Laerm;60920;48.748;19.142;2024-02-16T03:50:48;28.98;27.72;30.36;;
72805;Laerm;60920;48.748;19.142;2024-02-16T03:53:13;29.00;27.77;30.25;;
72805;Laerm;60920;48.748;19.142;2024-02-16T03:55:39;28.97;27.70;30.14;;
72805;Laerm;60920;48.748;19.142;2024-02-16T03:58:05;29.01;27.62;30.26;;
72805;Laerm;60920;48.748;19.142;2024-02-16T04:00:30;29.00;27.57;30.15;;
72805;Laerm;60920;48.748;19.142;2024-02-16T04:02:57;29.02;27.75;30.24;;
72805;Laerm;60920;48.748;19.142;2024-02-16T04:05:24;29.03;27.61;30.20;;
72805;Laerm;60920;48.748;19.142;2024-02-16T04:07:56;29.02;27.73;30.18;;
72805;Laerm;60920;48.748;19.142;2024-02-16T04:10:21;29.00;27.76;30.17;;
72805;Laerm;60920;48.748;19.142;2024-02-16T04:12:47;29.01;27.45;30.46;;
72805;Laerm;60920;48.748;19.142;2024-02-16T04:15:12;29.03;27.55;30.62;;
72805;Laerm;60920;48.748;19.142;2024-02-16T04:17:38;29.03;27.76;30.41;;
72805;Laerm;60920;48.748;19.142;2024-02-16T04:20:04;29.04;27.68;30.26;;
72805;Laerm;60920;48.748;19.142;2024-02-16T04:22:30;29.05;27.83;30.21;;
72805;Laerm;60920;48.748;19.142;2024-02-16T04:24:55;29.09;27.69;30.29;;
72805;Laerm;60920;48.748;19.142;2024-02-16T04:27:21;29.08;27.84;30.38;;
72805;Laerm;60920;48.748;19.142;2024-02-16T04:29:47;29.06;27.68;30.26;;
72805;Laerm;60920;48.748;19.142;2024-02-16T04:32:12;29.07;27.79;30.34;;
72805;Laerm;60920;48.748;19.142;2024-02-16T04:34:38;29.08;27.64;30.31;;
72805;Laerm;60920;48.748;19.142;2024-02-16T04:37:03;29.08;27.87;30.36;;
72805;Laerm;60920;48.748;19.142;2024-02-16T04:39:29;29.06;27.53;30.30;;
72805;Laerm;60920;48.748;19.142;2024-02-16T04:41:54;29.09;27.63;30.38;;
72805;Laerm;60920;48.748;19.142;2024-02-16T04:44:20;29.12;27.55;30.29;;
72805;Laerm;60920;48.748;19.142;2024-02-16T04:46:46;29.16;27.96;30.30;;
72805;Laerm;60920;48.748;19.142;2024-02-16T04:49:12;29.22;27.86;30.61;;
72805;Laerm;60920;48.748;19.142;2024-02-16T04:51:38;29.18;27.87;30.41;;
72805;Laerm;60920;48.748;19.142;2024-02-16T04:54:06;29.18;28.07;30.39;;
72805;Laerm;60920;48.748;19.142;2024-02-16T04:56:32;29.13;27.76;30.30;;
72805;Laerm;60920;48.748;19.142;2024-02-16T04:58:59;29.13;27.81;30.31;;
72805;Laerm;60920;48.748;19.142;2024-02-16T05:01:25;29.13;27.71;30.37;;
72805;Laerm;60920;48.748;19.142;2024-02-16T05:03:50;29.08;27.81;30.30;;
72805;Laerm;60920;48.748;19.142;2024-02-16T05:06:15;29.11;27.60;30.42;;
72805;Laerm;60920;48.748;19.142;2024-02-16T05:08:41;29.10;27.82;30.27;;
72805;Laerm;60920;48.748;19.142;2024-02-16T05:11:07;29.08;27.77;30.31;;
72805;Laerm;60920;48.748;19.142;2024-02-16T05:13:35;29.08;27.89;30.20;;
72805;Laerm;60920;48.748;19.142;2024-02-16T05:16:00;29.08;27.80;30.31;;
72805;Laerm;60920;48.748;19.142;2024-02-16T05:18:26;29.10;27.69;30.40;;
72805;Laerm;60920;48.748;19.142;2024-02-16T05:20:52;29.11;27.71;30.45;;
72805;Laerm;60920;48.748;19.142;2024-02-16T05:23:18;29.07;27.60;30.64;;
72805;Laerm;60920;48.748;19.142;2024-02-16T05:25:43;29.08;27.94;30.25;;
72805;Laerm;60920;48.748;19.142;2024-02-16T05:28:09;29.11;27.84;30.25;;
72805;Laerm;60920;48.748;19.142;2024-02-16T05:30:34;29.12;27.73;30.40;;
72805;Laerm;60920;48.748;19.142;2024-02-16T05:33:00;29.15;27.66;30.55;;
72805;Laerm;60920;48.748;19.142;2024-02-16T05:35:25;29.15;27.77;30.33;;
72805;Laerm;60920;48.748;19.142;2024-02-16T05:37:54;29.18;27.95;30.40;;
72805;Laerm;60920;48.748;19.142;2024-02-16T05:40:20;29.20;27.71;30.96;;
72805;Laerm;60920;48.748;19.142;2024-02-16T05:43:09;29.19;27.88;30.46;;
72805;Laerm;60920;48.748;19.142;2024-02-16T05:45:34;29.20;27.92;30.50;;
72805;Laerm;60920;48.748;19.142;2024-02-16T05:48:00;29.20;28.03;30.45;;
72805;Laerm;60920;48.748;19.142;2024-02-16T05:50:25;29.18;27.47;30.45;;
72805;Laerm;60920;48.748;19.142;2024-02-16T05:52:51;29.16;27.96;30.46;;
72805;Laerm;60920;48.748;19.142;2024-02-16T05:55:17;29.18;27.81;30.46;;
72805;Laerm;60920;48.748;19.142;2024-02-16T05:57:44;29.22;27.95;31.01;;
72805;Laerm;60920;48.748;19.142;2024-02-16T06:00:09;29.22;27.85;30.50;;
72805;Laerm;60920;48.748;19.142;2024-02-16T06:02:36;29.19;27.92;30.32;;
72805;Laerm;60920;48.748;19.142;2024-02-16T06:05:03;29.15;27.77;30.38;;
72805;Laerm;60920;48.748;19.142;2024-02-16T06:07:29;29.19;27.65;30.73;;
72805;Laerm;60920;48.748;19.142;2024-02-16T06:09:55;29.14;27.73;30.94;;
72805;Laerm;60920;48.748;19.142;2024-02-16T06:12:21;29.22;27.80;30.87;;
72805;Laerm;60920;48.748;19.142;2024-02-16T06:14:53;29.15;27.81;30.31;;
72805;Laerm;60920;48.748;19.142;2024-02-16T06:17:19;29.18;27.83;30.66;;
72805;Laerm;60920;48.748;19.142;2024-02-16T06:19:45;29.16;27.89;30.61;;
72805;Laerm;60920;48.748;19.142;2024-02-16T06:22:11;29.14;27.94;30.71;;
72805;Laerm;60920;48.748;19.142;2024-02-16T06:24:37;29.11;27.64;30.29;;
72805;Laerm;60920;48.748;19.142;2024-02-16T06:27:03;29.11;27.77;30.64;;
72805;Laerm;60920;48.748;19.142;2024-02-16T06:29:29;29.10;27.72;30.30;;
72805;Laerm;60920;48.748;19.142;2024-02-16T06:31:55;29.09;27.56;30.22;;
72805;Laerm;60920;48.748;19.142;2024-02-16T06:34:20;29.10;27.65;30.27;;
72805;Laerm;60920;48.748;19.142;2024-02-16T06:36:46;29.09;27.82;30.32;;
72805;Laerm;60920;48.748;19.142;2024-02-16T06:39:11;29.07;27.56;30.31;;
72805;Laerm;60920;48.748;19.142;2024-02-16T06:41:44;29.18;27.86;30.95;;
72805;Laerm;60920;48.748;19.142;2024-02-16T06:44:11;29.13;27.94;30.76;;
72805;Laerm;60920;48.748;19.142;2024-02-16T06:46:36;29.09;27.79;30.38;;
72805;Laerm;60920;48.748;19.142;2024-02-16T06:49:02;29.10;27.87;30.43;;
72805;Laerm;60920;48.748;19.142;2024-02-16T06:51:27;29.09;27.77;30.30;;
72805;Laerm;60920;48.748;19.142;2024-02-16T06:53:54;29.07;27.79;30.29;;
72805;Laerm;60920;48.748;19.142;2024-02-16T06:56:19;29.05;27.58;30.19;;
72805;Laerm;60920;48.748;19.142;2024-02-16T06:58:45;29.08;27.47;30.42;;
72805;Laerm;60920;48.748;19.142;2024-02-16T07:01:12;29.12;27.89;30.81;;
72805;Laerm;60920;48.748;19.142;2024-02-16T07:03:39;29.04;27.86;30.29;;
72805;Laerm;60920;48.748;19.142;2024-02-16T07:06:04;29.05;27.82;30.29;;
72805;Laerm;60920;48.748;19.142;2024-02-16T07:08:32;29.08;27.69;30.37;;
72805;Laerm;60920;48.748;19.142;2024-02-16T07:10:58;29.05;27.77;30.24;;
72805;Laerm;60920;48.748;19.142;2024-02-16T07:13:24;29.03;27.68;30.22;;
72805;Laerm;60920;48.748;19.142;2024-02-16T07:15:49;29.07;27.42;30.60;;
72805;Laerm;60920;48.748;19.142;2024-02-16T07:18:15;29.04;27.85;30.37;;
72805;Laerm;60920;48.748;19.142;2024-02-16T07:20:40;29.05;27.61;30.27;;
72805;Laerm;60920;48.748;19.142;2024-02-16T07:23:06;29.06;27.54;30.49;;
72805;Laerm;60920;48.748;19.142;2024-02-16T07:25:31;29.06;27.81;30.34;;
72805;Laerm;60920;48.748;19.142;2024-02-16T07:27:56;29.06;27.86;30.34;;
72805;Laerm;60920;48.748;19.142;2024-02-16T07:30:22;29.07;27.70;33.67;;
72805;Laerm;60920;48.748;19.142;2024-02-16T07:32:51;29.10;27.94;30.70;;
72805;Laerm;60920;48.748;19.142;2024-02-16T07:35:17;29.10;27.96;30.35;;
72805;Laerm;60920;48.748;19.142;2024-02-16T07:37:42;29.18;27.81;30.58;;
72805;Laerm;60920;48.748;19.142;2024-02-16T07:40:08;29.13;27.86;30.56;;
72805;Laerm;60920;48.748;19.142;2024-02-16T07:42:37;29.10;27.92;30.27;;
72805;Laerm;60920;48.748;19.142;2024-02-16T07:45:03;29.16;27.94;30.58;;
72805;Laerm;60920;48.748;19.142;2024-02-16T07:47:29;29.18;27.87;30.31;;
72805;Laerm;60920;48.748;19.142;2024-02-16T07:49:55;29.19;27.71;30.44;;
72805;Laerm;60920;48.748;19.142;2024-02-16T07:52:20;29.22;27.97;30.42;;
72805;Laerm;60920;48.748;19.142;2024-02-16T07:54:45;29.27;27.92;30.75;;
72805;Laerm;60920;48.748;19.142;2024-02-16T07:57:11;29.33;28.20;32.85;;
72805;Laerm;60920;48.748;19.142;2024-02-16T07:59:36;29.35;28.06;30.50;;
72805;Laerm;60920;48.748;19.142;2024-02-16T08:02:01;29.43;28.07;30.63;;
72805;Laerm;60920;48.748;19.142;2024-02-16T08:04:28;29.51;28.38;31.52;;
72805;Laerm;60920;48.748;19.142;2024-02-16T08:06:53;29.54;28.32;30.94;;
72805;Laerm;60920;48.748;19.142;2024-02-16T08:09:18;29.48;28.14;30.88;;
72805;Laerm;60920;48.748;19.142;2024-02-16T08:11:44;29.48;27.84;30.65;;
72805;Laerm;60920;48.748;19.142;2024-02-16T08:14:09;29.51;28.07;30.74;;
72805;Laerm;60920;48.748;19.142;2024-02-16T08:16:35;29.55;28.28;30.70;;
72805;Laerm;60920;48.748;19.142;2024-02-16T08:19:01;29.40;28.23;30.49;;
72805;Laerm;60920;48.748;19.142;2024-02-16T08:21:26;29.49;28.32;30.65;;
72805;Laerm;60920;48.748;19.142;2024-02-16T08:23:51;29.43;28.05;30.87;;
72805;Laerm;60920;48.748;19.142;2024-02-16T08:26:17;29.52;28.17;30.78;;
72805;Laerm;60920;48.748;19.142;2024-02-16T08:28:45;29.56;28.41;30.65;;
72805;Laerm;60920;48.748;19.142;2024-02-16T08:31:14;29.67;28.20;30.91;;
72805;Laerm;60920;48.748;19.142;2024-02-16T08:33:39;29.78;28.61;31.21;;
72805;Laerm;60920;48.748;19.142;2024-02-16T08:36:06;29.86;28.72;31.08;;
72805;Laerm;60920;48.748;19.142;2024-02-16T08:38:32;29.93;28.58;31.09;;
72805;Laerm;60920;48.748;19.142;2024-02-16T08:40:57;30.02;28.76;31.52;;
72805;Laerm;60920;48.748;19.142;2024-02-16T08:43:24;30.11;28.81;31.36;;
72805;Laerm;60920;48.748;19.142;2024-02-16T08:45:49;30.16;28.71;31.47;;
72805;Laerm;60920;48.748;19.142;2024-02-16T08:48:14;30.12;28.85;35.17;;
72805;Laerm;60920;48.748;19.142;2024-02-16T08:50:39;30.12;28.88;31.28;;
72805;Laerm;60920;48.748;19.142;2024-02-16T08:53:05;30.35;29.18;31.76;;
72805;Laerm;60920;48.748;19.142;2024-02-16T08:55:30;30.47;29.10;33.08;;
72805;Laerm;60920;48.748;19.142;2024-02-16T08:57:57;30.53;29.35;31.83;;
72805;Laerm;60920;48.748;19.142;2024-02-16T09:00:22;30.62;29.37;32.11;;
72805;Laerm;60920;48.748;19.142;2024-02-16T09:02:50;30.57;29.13;31.78;;
72805;Laerm;60920;48.748;19.142;2024-02-16T09:05:15;30.44;29.23;31.67;;
72805;Laerm;60920;48.748;19.142;2024-02-16T09:07:41;30.47;29.18;31.58;;
72805;Laerm;60920;48.748;19.142;2024-02-16T09:10:06;30.64;29.25;31.81;;
72805;Laerm;60920;48.748;19.142;2024-02-16T09:12:33;30.73;29.30;32.02;;
72805;Laerm;60920;48.748;19.142;2024-02-16T09:14:58;30.64;29.27;31.95;;
72805;Laerm;60920;48.748;19.142;2024-02-16T09:17:26;30.72;29.28;32.06;;
72805;Laerm;60920;48.748;19.142;2024-02-16T09:19:51;30.73;29.31;31.79;;
72805;Laerm;60920;48.748;19.142;2024-02-16T09:22:17;30.76;29.50;31.98;;
72805;Laerm;60920;48.748;19.142;2024-02-16T09:24:42;30.89;29.44;32.11;;
72805;Laerm;60920;48.748;19.142;2024-02-16T09:27:11;30.81;29.41;32.01;;
72805;Laerm;60920;48.748;19.142;2024-02-16T09:29:37;30.75;29.56;31.88;;
72805;Laerm;60920;48.748;19.142;2024-02-16T09:32:03;30.74;29.44;31.99;;
72805;Laerm;60920;48.748;19.142;2024-02-16T09:34:28;30.69;29.44;32.06;;
72805;Laerm;60920;48.748;19.142;2024-02-16T09:36:54;30.77;29.61;32.26;;
72805;Laerm;60920;48.748;19.142;2024-02-16T09:39:19;30.77;29.53;34.96;;
72805;Laerm;60920;48.748;19.142;2024-02-16T09:41:44;30.72;29.47;32.15;;
72805;Laerm;60920;48.748;19.142;2024-02-16T09:44:13;30.81;29.54;32.29;;
72805;Laerm;60920;48.748;19.142;2024-02-16T09:46:39;30.86;29.57;32.11;;
72805;Laerm;60920;48.748;19.142;2024-02-16T09:49:04;30.96;29.72;32.20;;
72805;Laerm;60920;48.748;19.142;2024-02-16T09:51:30;31.01;29.37;32.16;;
72805;Laerm;60920;48.748;19.142;2024-02-16T09:53:55;30.98;29.48;32.36;;
72805;Laerm;60920;48.748;19.142;2024-02-16T09:56:21;30.96;29.74;32.25;;
72805;Laerm;60920;48.748;19.142;2024-02-16T09:58:46;30.97;29.63;32.23;;
72805;Laerm;60920;48.748;19.142;2024-02-16T10:01:18;31.02;29.64;33.22;;
72805;Laerm;60920;48.748;19.142;2024-02-16T10:03:47;31.00;29.57;33.18;;
72805;Laerm;60920;48.748;19.142;2024-02-16T10:06:13;30.99;29.76;32.48;;
72805;Laerm;60920;48.748;19.142;2024-02-16T10:11:36;31.03;29.75;33.46;;
72805;Laerm;60920;48.748;19.142;2024-02-16T10:14:04;31.07;29.73;32.69;;
72805;Laerm;60920;48.748;19.142;2024-02-16T10:16:29;31.06;29.83;32.39;;
72805;Laerm;60920;48.748;19.142;2024-02-16T10:19:05;31.04;29.87;32.21;;
72805;Laerm;60920;48.748;19.142;2024-02-16T10:21:31;31.02;29.75;32.25;;
72805;Laerm;60920;48.748;19.142;2024-02-16T10:23:57;31.05;29.68;32.30;;
72805;Laerm;60920;48.748;19.142;2024-02-16T10:26:23;31.04;29.91;32.26;;
72805;Laerm;60920;48.748;19.142;2024-02-16T10:28:49;31.06;29.82;32.23;;
72805;Laerm;60920;48.748;19.142;2024-02-16T10:31:15;31.05;29.65;32.36;;
72805;Laerm;60920;48.748;19.142;2024-02-16T10:33:41;31.05;29.59;32.20;;
72805;Laerm;60920;48.748;19.142;2024-02-16T10:36:08;31.08;29.57;32.36;;
72805;Laerm;60920;48.748;19.142;2024-02-16T10:38:34;31.05;29.72;34.70;;
72805;Laerm;60920;48.748;19.142;2024-02-16T10:40:59;31.04;29.70;32.16;;
72805;Laerm;60920;48.748;19.142;2024-02-16T10:43:26;31.05;29.65;32.36;;
72805;Laerm;60920;48.748;19.142;2024-02-16T10:45:52;31.03;29.72;32.65;;
72805;Laerm;60920;48.748;19.142;2024-02-16T10:48:18;31.03;29.87;32.27;;
72805;Laerm;60920;48.748;19.142;2024-02-16T10:50:44;31.02;29.74;32.34;;
72805;Laerm;60920;48.748;19.142;2024-02-16T10:55:35;31.04;29.59;32.10;;
72805;Laerm;60920;48.748;19.142;2024-02-16T10:58:01;31.09;29.81;32.85;;
72805;Laerm;60920;48.748;19.142;2024-02-16T11:00:26;31.08;29.77;32.45;;
72805;Laerm;60920;48.748;19.142;2024-02-16T11:02:58;31.06;29.65;32.83;;
72805;Laerm;60920;48.748;19.142;2024-02-16T11:05:35;31.08;29.77;34.33;;
72805;Laerm;60920;48.748;19.142;2024-02-16T11:08:04;31.03;29.55;32.38;;
72805;Laerm;60920;48.748;19.142;2024-02-16T11:10:30;31.07;29.62;32.39;;
72805;Laerm;60920;48.748;19.142;2024-02-16T11:13:00;31.00;29.83;32.13;;
72805;Laerm;60920;48.748;19.142;2024-02-16T11:15:32;31.02;29.71;32.19;;
72805;Laerm;60920;48.748;19.142;2024-02-16T11:18:02;31.01;29.44;33.19;;
72805;Laerm;60920;48.748;19.142;2024-02-16T11:20:27;30.99;29.62;32.35;;
72805;Laerm;60920;48.748;19.142;2024-02-16T11:22:53;31.00;29.75;32.34;;
72805;Laerm;60920;48.748;19.142;2024-02-16T11:25:19;31.02;29.59;32.17;;
72805;Laerm;60920;48.748;19.142;2024-02-16T11:27:46;30.96;29.67;32.01;;
72805;Laerm;60920;48.748;19.142;2024-02-16T11:30:11;30.96;29.49;32.17;;
72805;Laerm;60920;48.748;19.142;2024-02-16T11:32:36;30.97;29.75;32.98;;
72805;Laerm;60920;48.748;19.142;2024-02-16T11:35:07;30.91;29.69;32.46;;
72805;Laerm;60920;48.748;19.142;2024-02-16T11:37:33;30.93;29.63;32.34;;
72805;Laerm;60920;48.748;19.142;2024-02-16T11:39:58;30.92;29.52;32.11;;
72805;Laerm;60920;48.748;19.142;2024-02-16T11:42:24;30.78;29.55;32.02;;
72805;Laerm;60920;48.748;19.142;2024-02-16T11:44:55;30.78;29.04;32.27;;
72805;Laerm;60920;48.748;19.142;2024-02-16T11:47:20;30.84;29.52;32.40;;
72805;Laerm;60920;48.748;19.142;2024-02-16T11:50:11;30.79;29.56;32.16;;
72805;Laerm;60920;48.748;19.142;2024-02-16T11:52:40;30.78;29.48;32.16;;
72805;Laerm;60920;48.748;19.142;2024-02-16T11:55:09;30.79;29.33;32.24;;
72805;Laerm;60920;48.748;19.142;2024-02-16T11:57:36;30.68;29.33;32.03;;
72805;Laerm;60920;48.748;19.142;2024-02-16T12:00:02;30.66;29.11;32.43;;
72805;Laerm;60920;48.748;19.142;2024-02-16T12:02:33;30.67;29.25;32.60;;
72805;Laerm;60920;48.748;19.142;2024-02-16T12:04:59;30.76;29.42;33.24;;
72805;Laerm;60920;48.748;19.142;2024-02-16T12:07:27;30.64;29.20;31.92;;
72805;Laerm;60920;48.748;19.142;2024-02-16T12:09:59;30.61;29.39;32.05;;
72805;Laerm;60920;48.748;19.142;2024-02-16T12:12:25;30.70;29.33;32.13;;
72805;Laerm;60920;48.748;19.142;2024-02-16T12:14:52;30.71;29.23;31.95;;
72805;Laerm;60920;48.748;19.142;2024-02-16T12:17:17;30.75;29.22;32.22;;
72805;Laerm;60920;48.748;19.142;2024-02-16T12:19:43;30.78;29.31;32.14;;
72805;Laerm;60920;48.748;19.142;2024-02-16T12:22:09;30.82;29.33;32.11;;
72805;Laerm;60920;48.748;19.142;2024-02-16T12:24:34;30.81;29.48;32.08;;
72805;Laerm;60920;48.748;19.142;2024-02-16T12:27:00;30.69;29.15;31.90;;
72805;Laerm;60920;48.748;19.142;2024-02-16T12:29:25;30.73;29.21;31.93;;
72805;Laerm;60920;48.748;19.142;2024-02-16T12:31:50;30.75;29.49;32.27;;
72805;Laerm;60920;48.748;19.142;2024-02-16T12:34:16;30.78;29.38;32.02;;
72805;Laerm;60920;48.748;19.142;2024-02-16T12:36:42;30.77;29.47;32.28;;
72805;Laerm;60920;48.748;19.142;2024-02-16T12:39:07;30.79;29.56;31.99;;
72805;Laerm;60920;48.748;19.142;2024-02-16T12:41:36;30.75;29.22;31.96;;
72805;Laerm;60920;48.748;19.142;2024-02-16T12:44:03;30.78;29.44;32.18;;
72805;Laerm;60920;48.748;19.142;2024-02-16T12:46:30;30.74;29.26;32.54;;
72805;Laerm;60920;48.748;19.142;2024-02-16T12:48:55;30.72;29.39;31.97;;
72805;Laerm;60920;48.748;19.142;2024-02-16T12:51:20;30.68;29.34;31.90;;
72805;Laerm;60920;48.748;19.142;2024-02-16T12:53:46;30.65;29.23;32.00;;
72805;Laerm;60920;48.748;19.142;2024-02-16T12:56:11;30.69;29.35;31.96;;
72805;Laerm;60920;48.748;19.142;2024-02-16T12:58:36;30.71;29.33;31.97;;
72805;Laerm;60920;48.748;19.142;2024-02-16T13:01:05;30.69;29.15;31.98;;
72805;Laerm;60920;48.748;19.142;2024-02-16T13:03:35;30.67;29.32;32.63;;
72805;Laerm;60920;48.748;19.142;2024-02-16T13:06:01;30.69;29.33;32.05;;
72805;Laerm;60920;48.748;19.142;2024-02-16T13:08:27;30.74;29.40;31.99;;
72805;Laerm;60920;48.748;19.142;2024-02-16T13:10:52;30.75;29.26;32.12;;
72805;Laerm;60920;48.748;19.142;2024-02-16T13:13:17;30.70;29.39;32.81;;
72805;Laerm;60920;48.748;19.142;2024-02-16T13:15:42;30.67;29.09;32.03;;
72805;Laerm;60920;48.748;19.142;2024-02-16T13:18:08;30.76;29.02;32.05;;
72805;Laerm;60920;48.748;19.142;2024-02-16T13:20:33;30.76;28.84;32.02;;
72805;Laerm;60920;48.748;19.142;2024-02-16T13:23:00;30.82;29.40;32.23;;
72805;Laerm;60920;48.748;19.142;2024-02-16T13:25:26;30.74;29.00;32.68;;
72805;Laerm;60920;48.748;19.142;2024-02-16T13:27:51;30.72;29.15;32.11;;
72805;Laerm;60920;48.748;19.142;2024-02-16T13:30:16;30.67;29.27;31.82;;
72805;Laerm;60920;48.748;19.142;2024-02-16T13:32:42;30.71;29.38;31.90;;
72805;Laerm;60920;48.748;19.142;2024-02-16T13:35:07;30.70;29.35;32.34;;